Time;durP1;ratioP1;P1;durP2;ratioP2;P2;SDS_P1;SDS_P2;PMS_P1;PMS_P2;Temp;Humidity;BMP_temperature;BMP_pressure;BME280_temperature;BME280_humidity;BME280_pressure;Samples;Min_cycle;Max_cycle;Signal;HPM_P1;HPM_P2
2024/01/07 00:00:02;;;;;;;16.87;13.93;;;;;;;;;;5088800;28;20030;-46
2024/01/07 00:02:31;;;;;;;24.05;18.25;;;;;;;;;;5086597;28;20063;-45
2024/01/07 00:04:57;;;;;;;20.50;16.27;;;;;;;;;;5089745;28;20500;-47
2024/01/07 00:07:24;;;;;;;24.83;16.70;;;;;;;;;;5079188;28;20238;-45
2024/01/07 00:09:50;;;;;;;20.77;16.65;;;;;;;;;;5086914;28;20027;-49
2024/01/07 00:12:17;;;;;;;21.13;15.55;;;;;;;;;;5078903;28;20055;-46
2024/01/07 00:14:43;;;;;;;21.92;15.50;;;;;;;;;;5091557;28;20031;-48
2024/01/07 00:17:11;;;;;;;20.42;15.55;;;;;;;;;;5077588;28;20024;-47
2024/01/07 00:19:38;;;;;;;22.95;16.13;;;;;;;;;;5080448;28;20077;-47
2024/01/07 00:22:04;;;;;;;21.63;17.05;;;;;;;;;;5083695;28;20133;-45
2024/01/07 00:24:30;;;;;;;23.98;17.25;;;;;;;;;;5082662;28;20028;-45
2024/01/07 00:26:56;;;;;;;21.20;16.25;;;;;;;;;;5081313;28;20021;-45
2024/01/07 00:29:23;;;;;;;21.73;16.70;;;;;;;;;;5075185;28;20027;-48
2024/01/07 00:31:49;;;;;;;22.37;17.30;;;;;;;;;;5085437;28;20017;-50
2024/01/07 00:34:15;;;;;;;25.57;17.93;;;;;;;;;;5074925;28;20039;-47
2024/01/07 00:36:41;;;;;;;21.35;16.20;;;;;;;;;;5092408;28;20042;-47
2024/01/07 00:39:08;;;;;;;18.73;14.75;;;;;;;;;;5087962;28;20052;-46
2024/01/07 00:41:34;;;;;;;23.80;17.02;;;;;;;;;;5076627;28;20052;-47
2024/01/07 00:44:00;;;;;;;25.23;16.65;;;;;;;;;;5092096;28;20032;-45
2024/01/07 00:46:27;;;;;;;25.90;18.50;;;;;;;;;;5081931;28;20116;-46
2024/01/07 00:48:53;;;;;;;23.05;18.42;;;;;;;;;;5073622;28;20025;-46
2024/01/07 00:51:19;;;;;;;22.63;16.40;;;;;;;;;;5076035;28;20033;-46
2024/01/07 00:53:45;;;;;;;28.02;18.70;;;;;;;;;;5076044;28;20024;-47
2024/01/07 00:56:11;;;;;;;24.88;18.60;;;;;;;;;;5079366;28;20028;-48
2024/01/07 00:58:38;;;;;;;27.75;18.10;;;;;;;;;;5091654;28;20069;-46
2024/01/07 01:01:04;;;;;;;25.53;17.33;;;;;;;;;;5092392;28;20157;-49
2024/01/07 01:03:30;;;;;;;22.83;17.98;;;;;;;;;;5078408;28;20024;-46
2024/01/07 01:05:56;;;;;;;22.85;17.80;;;;;;;;;;5093299;28;20031;-47
2024/01/07 01:08:23;;;;;;;23.77;16.75;;;;;;;;;;5088984;28;20379;-46
2024/01/07 01:10:49;;;;;;;27.83;17.73;;;;;;;;;;5074516;28;20410;-47
2024/01/07 01:13:15;;;;;;;25.30;16.60;;;;;;;;;;5070744;28;20366;-46
2024/01/07 01:15:42;;;;;;;23.02;17.17;;;;;;;;;;5086086;28;20048;-47
2024/01/07 01:18:08;;;;;;;31.15;20.05;;;;;;;;;;5073021;28;20158;-48
2024/01/07 01:20:34;;;;;;;24.63;17.53;;;;;;;;;;5093774;28;20024;-47
2024/01/07 01:23:00;;;;;;;22.50;16.73;;;;;;;;;;5082810;28;20043;-48
2024/01/07 01:25:27;;;;;;;23.40;16.63;;;;;;;;;;5074207;28;20044;-45
2024/01/07 01:27:53;;;;;;;25.15;18.88;;;;;;;;;;5089628;28;20113;-47
2024/01/07 01:30:19;;;;;;;28.83;21.52;;;;;;;;;;5090505;28;20471;-47
2024/01/07 01:32:46;;;;;;;28.33;21.23;;;;;;;;;;5074887;28;20029;-48
2024/01/07 01:35:12;;;;;;;27.70;21.70;;;;;;;;;;5072567;28;20037;-45
2024/01/07 01:37:38;;;;;;;29.23;22.55;;;;;;;;;;5073456;28;20451;-47
2024/01/07 01:40:05;;;;;;;31.00;23.23;;;;;;;;;;5074036;28;20060;-46
2024/01/07 01:42:31;;;;;;;24.33;19.30;;;;;;;;;;5080592;28;20050;-47
2024/01/07 01:45:01;;;;;;;28.30;21.60;;;;;;;;;;5092604;28;20028;-46
2024/01/07 01:47:27;;;;;;;25.50;18.92;;;;;;;;;;5093663;28;20020;-45
2024/01/07 01:49:54;;;;;;;20.88;15.75;;;;;;;;;;5093771;28;20047;-47
2024/01/07 01:52:20;;;;;;;24.13;17.33;;;;;;;;;;5088749;28;20056;-46
2024/01/07 01:54:46;;;;;;;22.77;16.77;;;;;;;;;;5074704;28;20033;-47
2024/01/07 01:57:16;;;;;;;21.70;16.90;;;;;;;;;;5072155;28;20605;-45
2024/01/07 01:59:43;;;;;;;23.45;16.88;;;;;;;;;;5073570;28;20028;-48
2024/01/07 02:02:09;;;;;;;;;;;;;;;;;;5087217;28;20016;-47
2024/01/07 02:04:35;;;;;;;21.35;15.25;;;;;;;;;;5080386;28;19912;-48
2024/01/07 02:07:02;;;;;;;20.43;15.87;;;;;;;;;;5073520;28;20398;-50
2024/01/07 02:09:28;;;;;;;22.95;16.83;;;;;;;;;;5072273;28;20029;-48
2024/01/07 02:12:11;;;;;;;22.13;16.35;;;;;;;;;;5083188;28;20157;-50
2024/01/07 02:14:38;;;;;;;21.27;16.45;;;;;;;;;;5051974;28;20086;-48
2024/01/07 02:17:05;;;;;;;22.92;16.88;;;;;;;;;;5068041;28;20028;-47
2024/01/07 02:19:31;;;;;;;20.75;14.40;;;;;;;;;;5093484;28;20146;-45
2024/01/07 02:21:57;;;;;;;21.05;16.60;;;;;;;;;;5093411;28;20031;-46
2024/01/07 02:24:24;;;;;;;19.45;15.02;;;;;;;;;;5091667;28;20050;-48
2024/01/07 02:26:51;;;;;;;20.92;16.05;;;;;;;;;;5093306;28;20032;-47
2024/01/07 02:29:17;;;;;;;21.45;15.68;;;;;;;;;;5083268;28;20029;-46
2024/01/07 02:31:44;;;;;;;20.35;16.42;;;;;;;;;;5072956;28;20054;-46
2024/01/07 02:34:10;;;;;;;26.50;17.47;;;;;;;;;;5072729;28;20410;-45
2024/01/07 02:36:37;;;;;;;21.42;16.13;;;;;;;;;;5072826;28;20801;-46
2024/01/07 02:39:03;;;;;;;23.43;18.33;;;;;;;;;;5071392;28;20037;-47
2024/01/07 02:41:29;;;;;;;22.10;17.13;;;;;;;;;;5073017;28;20086;-46
2024/01/07 02:43:55;;;;;;;23.53;16.90;;;;;;;;;;5072574;28;20034;-47
2024/01/07 02:46:22;;;;;;;22.10;17.40;;;;;;;;;;5072645;28;20056;-49
2024/01/07 02:48:48;;;;;;;21.50;17.20;;;;;;;;;;5071734;28;20498;-48
2024/01/07 02:51:14;;;;;;;25.20;18.35;;;;;;;;;;5072465;28;20541;-49
2024/01/07 02:53:41;;;;;;;24.98;18.73;;;;;;;;;;5071415;28;20489;-49
2024/01/07 02:56:08;;;;;;;27.23;20.95;;;;;;;;;;5072645;28;20103;-52
2024/01/07 02:58:35;;;;;;;25.60;19.15;;;;;;;;;;5072404;28;20028;-47
2024/01/07 03:01:01;;;;;;;29.83;21.20;;;;;;;;;;5072414;28;20033;-50
2024/01/07 03:03:27;;;;;;;26.25;19.60;;;;;;;;;;5072154;28;20028;-47
2024/01/07 03:05:53;;;;;;;27.63;21.02;;;;;;;;;;5072784;28;20029;-49
2024/01/07 03:08:19;;;;;;;29.35;21.02;;;;;;;;;;5089318;28;20028;-46
2024/01/07 03:10:45;;;;;;;31.83;19.50;;;;;;;;;;5086794;28;20394;-46
2024/01/07 03:13:12;;;;;;;32.20;22.65;;;;;;;;;;5073517;28;20017;-47
2024/01/07 03:15:38;;;;;;;28.08;20.55;;;;;;;;;;5075995;28;20055;-46
2024/01/07 03:18:04;;;;;;;30.83;21.23;;;;;;;;;;5081550;28;20031;-46
2024/01/07 03:20:30;;;;;;;34.22;21.33;;;;;;;;;;5092260;28;20024;-48
2024/01/07 03:22:57;;;;;;;27.48;20.60;;;;;;;;;;5090009;28;20502;-52
2024/01/07 03:25:24;;;;;;;28.80;21.40;;;;;;;;;;5080935;28;20094;-46
2024/01/07 03:27:50;;;;;;;28.60;21.83;;;;;;;;;;5073095;28;20030;-48
2024/01/07 03:30:16;;;;;;;31.73;21.92;;;;;;;;;;5081987;28;20417;-48
2024/01/07 03:32:42;;;;;;;26.40;20.15;;;;;;;;;;5088843;28;20064;-48
2024/01/07 03:35:08;;;;;;;28.60;21.05;;;;;;;;;;5077958;28;20040;-47
2024/01/07 03:37:35;;;;;;;28.03;21.43;;;;;;;;;;5091941;28;20040;-49
2024/01/07 03:40:01;;;;;;;29.90;21.33;;;;;;;;;;5072648;28;20036;-48
2024/01/07 03:42:27;;;;;;;36.33;22.87;;;;;;;;;;5072924;28;20074;-48
2024/01/07 03:44:54;;;;;;;30.38;21.80;;;;;;;;;;5084778;28;20322;-52
2024/01/07 03:47:20;;;;;;;31.05;22.45;;;;;;;;;;5080416;28;20375;-51
2024/01/07 03:49:46;;;;;;;30.25;22.50;;;;;;;;;;5090254;28;20020;-47
2024/01/07 03:52:12;;;;;;;31.77;22.75;;;;;;;;;;5079585;28;20046;-46
2024/01/07 03:54:38;;;;;;;32.28;22.80;;;;;;;;;;5080022;28;20028;-47
2024/01/07 03:57:05;;;;;;;34.63;24.20;;;;;;;;;;5091064;28;20551;-47
2024/01/07 03:59:31;;;;;;;35.30;24.23;;;;;;;;;;5091674;28;20031;-46
2024/01/07 04:01:58;;;;;;;30.20;22.83;;;;;;;;;;5090004;28;20032;-48
2024/01/07 04:04:24;;;;;;;37.13;22.90;;;;;;;;;;5077513;28;20039;-47
2024/01/07 04:06:50;;;;;;;36.67;24.00;;;;;;;;;;5088943;28;20031;-48
2024/01/07 04:09:16;;;;;;;29.08;21.80;;;;;;;;;;5089346;28;20036;-47
2024/01/07 04:11:43;;;;;;;26.42;21.55;;;;;;;;;;5089147;28;20028;-48
2024/01/07 04:14:09;;;;;;;31.40;22.65;;;;;;;;;;5091474;28;20024;-52
2024/01/07 04:16:36;;;;;;;34.72;25.23;;;;;;;;;;5087697;28;20036;-48
2024/01/07 04:19:02;;;;;;;31.23;24.63;;;;;;;;;;5083161;28;20033;-53
2024/01/07 04:21:28;;;;;;;33.13;24.03;;;;;;;;;;5086818;28;20031;-52
2024/01/07 04:23:54;;;;;;;31.10;24.23;;;;;;;;;;5091273;28;20107;-47
2024/01/07 04:26:20;;;;;;;32.83;23.58;;;;;;;;;;5088547;28;20482;-50
2024/01/07 04:28:46;;;;;;;34.28;24.13;;;;;;;;;;5073996;22;20044;-48
2024/01/07 04:31:13;;;;;;;32.67;23.77;;;;;;;;;;5051179;28;20033;-47
2024/01/07 04:33:39;;;;;;;35.42;26.13;;;;;;;;;;5050557;28;20029;-46
2024/01/07 04:36:05;;;;;;;32.33;24.40;;;;;;;;;;5051105;28;20479;-48
2024/01/07 04:38:32;;;;;;;36.00;24.93;;;;;;;;;;5051148;28;20346;-47
2024/01/07 04:40:58;;;;;;;29.47;21.17;;;;;;;;;;5029488;28;20029;-48
2024/01/07 04:43:24;;;;;;;31.75;22.90;;;;;;;;;;5033145;28;20029;-47
2024/01/07 04:45:50;;;;;;;31.08;22.50;;;;;;;;;;5044541;28;20022;-47
2024/01/07 04:48:16;;;;;;;31.58;23.48;;;;;;;;;;5030927;28;20032;-47
2024/01/07 04:50:43;;;;;;;29.88;22.85;;;;;;;;;;5041282;28;20053;-47
2024/01/07 04:53:09;;;;;;;34.00;24.20;;;;;;;;;;5031181;28;20041;-48
2024/01/07 04:55:35;;;;;;;31.47;22.70;;;;;;;;;;5030884;28;20032;-47
2024/01/07 04:58:01;;;;;;;31.50;22.42;;;;;;;;;;5029897;28;20083;-51
2024/01/07 05:00:28;;;;;;;31.00;23.27;;;;;;;;;;5031208;28;20105;-49
2024/01/07 05:02:55;;;;;;;27.55;21.35;;;;;;;;;;5029940;28;20314;-49
2024/01/07 05:05:21;;;;;;;31.35;22.50;;;;;;;;;;5042324;28;20067;-48
2024/01/07 05:07:47;;;;;;;31.95;23.35;;;;;;;;;;5049720;28;20078;-48
2024/01/07 05:10:13;;;;;;;31.42;22.23;;;;;;;;;;5049510;28;20047;-48
2024/01/07 05:12:39;;;;;;;33.63;22.58;;;;;;;;;;5053811;28;20514;-49
2024/01/07 05:15:06;;;;;;;30.50;22.60;;;;;;;;;;5036120;28;20056;-46
2024/01/07 05:17:32;;;;;;;30.85;22.15;;;;;;;;;;5054511;28;20036;-48
2024/01/07 05:19:58;;;;;;;29.63;21.42;;;;;;;;;;5054355;28;20036;-48
2024/01/07 05:22:25;;;;;;;35.25;24.80;;;;;;;;;;5054215;28;20078;-46
2024/01/07 05:24:51;;;;;;;31.98;23.17;;;;;;;;;;5054112;28;20029;-48
2024/01/07 05:27:17;;;;;;;35.40;24.92;;;;;;;;;;5036453;28;20025;-51
2024/01/07 05:29:47;;;;;;;34.83;25.05;;;;;;;;;;5053708;28;20116;-48
2024/01/07 05:32:13;;;;;;;35.30;23.63;;;;;;;;;;5023703;28;20474;-48
2024/01/07 05:34:39;;;;;;;35.55;24.60;;;;;;;;;;5053734;28;20029;-46
2024/01/07 05:37:05;;;;;;;35.95;25.35;;;;;;;;;;5036220;28;20533;-48
2024/01/07 05:39:31;;;;;;;28.87;22.80;;;;;;;;;;5053813;28;20060;-50
2024/01/07 05:41:57;;;;;;;33.50;23.80;;;;;;;;;;5054013;28;20053;-47
2024/01/07 05:44:24;;;;;;;31.38;22.65;;;;;;;;;;5053614;28;20110;-48
2024/01/07 05:46:50;;;;;;;30.92;22.90;;;;;;;;;;5053738;28;20023;-48
2024/01/07 05:49:16;;;;;;;32.00;23.13;;;;;;;;;;5053783;28;20043;-49
2024/01/07 05:51:42;;;;;;;35.70;23.50;;;;;;;;;;5034759;28;20478;-48
2024/01/07 05:54:08;;;;;;;34.30;22.70;;;;;;;;;;5033773;28;20032;-49
2024/01/07 05:56:41;;;;;;;34.97;24.42;;;;;;;;;;5033868;28;20049;-48
2024/01/07 05:59:08;;;;;;;36.22;23.80;;;;;;;;;;5033677;28;20036;-48
2024/01/07 06:01:34;;;;;;;32.72;23.00;;;;;;;;;;5039090;28;20112;-48
2024/01/07 06:04:01;;;;;;;33.83;22.98;;;;;;;;;;5037550;28;20032;-49
2024/01/07 06:06:27;;;;;;;32.85;24.02;;;;;;;;;;5053618;28;20021;-53
2024/01/07 06:08:53;;;;;;;32.13;23.33;;;;;;;;;;5053556;28;20025;-47
2024/01/07 06:11:20;;;;;;;33.10;24.70;;;;;;;;;;5035574;28;20101;-51
2024/01/07 06:13:47;;;;;;;39.85;25.60;;;;;;;;;;5033304;28;20506;-50
2024/01/07 06:16:13;;;;;;;35.35;24.38;;;;;;;;;;5042717;28;20025;-49
2024/01/07 06:18:39;;;;;;;37.63;25.70;;;;;;;;;;5053363;28;20048;-50
2024/01/07 06:21:05;;;;;;;34.80;25.00;;;;;;;;;;5034137;28;20040;-48
2024/01/07 06:23:35;;;;;;;39.42;26.65;;;;;;;;;;5033397;28;20064;-48
2024/01/07 06:26:04;;;;;;;36.30;26.52;;;;;;;;;;5033239;28;20026;-52
2024/01/07 06:28:30;;;;;;;37.90;26.30;;;;;;;;;;5033041;28;20037;-49
2024/01/07 06:30:56;;;;;;;37.77;25.27;;;;;;;;;;5043987;28;20025;-49
2024/01/07 06:33:22;;;;;;;37.03;25.33;;;;;;;;;;5033142;28;20029;-49
2024/01/07 06:35:48;;;;;;;36.72;24.77;;;;;;;;;;5047376;28;20487;-49
2024/01/07 06:38:15;;;;;;;34.95;24.58;;;;;;;;;;5033118;28;20029;-53
2024/01/07 06:40:41;;;;;;;35.10;25.08;;;;;;;;;;5032423;28;20029;-48
2024/01/07 06:43:07;;;;;;;37.20;26.15;;;;;;;;;;5052879;28;20445;-47
2024/01/07 06:45:33;;;;;;;36.05;25.38;;;;;;;;;;5048588;28;20040;-48
2024/01/07 06:48:00;;;;;;;36.67;26.48;;;;;;;;;;5049779;28;20483;-50
2024/01/07 06:50:27;;;;;;;39.25;25.23;;;;;;;;;;5038034;28;20033;-52
2024/01/07 06:52:53;;;;;;;39.77;27.57;;;;;;;;;;5015112;28;20464;-48
2024/01/07 06:55:19;;;;;;;34.08;25.13;;;;;;;;;;5015021;28;20049;-48
2024/01/07 06:57:45;;;;;;;38.60;27.17;;;;;;;;;;5047393;28;20051;-49
2024/01/07 07:00:12;;;;;;;38.20;27.38;;;;;;;;;;5040732;28;20496;-49
2024/01/07 07:02:38;;;;;;;40.78;26.65;;;;;;;;;;5034641;28;20067;-49
2024/01/07 07:05:04;;;;;;;35.72;26.30;;;;;;;;;;5052079;28;20041;-49
2024/01/07 07:07:30;;;;;;;39.50;27.67;;;;;;;;;;5052078;28;20028;-51
2024/01/07 07:09:56;;;;;;;34.88;25.05;;;;;;;;;;5051458;28;20065;-48
2024/01/07 07:12:22;;;;;;;34.80;25.10;;;;;;;;;;5052285;28;20021;-48
2024/01/07 07:14:49;;;;;;;36.45;26.33;;;;;;;;;;5052135;28;20025;-48
2024/01/07 07:17:16;;;;;;;32.00;23.50;;;;;;;;;;5051617;28;20031;-48
2024/01/07 07:19:42;;;;;;;34.35;24.77;;;;;;;;;;5051340;28;20039;-50
2024/01/07 07:22:08;;;;;;;35.92;25.83;;;;;;;;;;5021730;28;20037;-47
2024/01/07 07:24:34;;;;;;;31.48;23.42;;;;;;;;;;5030968;28;20095;-48
2024/01/07 07:27:00;;;;;;;36.20;26.35;;;;;;;;;;5035122;28;20080;-48
2024/01/07 07:29:27;;;;;;;34.58;24.45;;;;;;;;;;5048290;28;20060;-48
2024/01/07 07:31:53;;;;;;;38.08;24.23;;;;;;;;;;5036631;28;20028;-50
2024/01/07 07:34:19;;;;;;;38.60;25.90;;;;;;;;;;5032597;28;20075;-48
2024/01/07 07:36:45;;;;;;;36.97;26.60;;;;;;;;;;5042335;28;20105;-51
2024/01/07 07:39:13;;;;;;;36.08;27.02;;;;;;;;;;5046790;28;20060;-52
2024/01/07 07:41:39;;;;;;;38.70;26.65;;;;;;;;;;5044000;28;20395;-49
2024/01/07 07:44:07;;;;;;;36.22;26.90;;;;;;;;;;5029724;28;20513;-50
2024/01/07 07:46:33;;;;;;;38.22;27.50;;;;;;;;;;5033406;28;20029;-51
2024/01/07 07:49:01;;;;;;;36.60;27.13;;;;;;;;;;5033076;28;20044;-48
2024/01/07 07:51:28;;;;;;;39.88;26.48;;;;;;;;;;5051563;28;20487;-48
2024/01/07 07:53:54;;;;;;;39.13;29.50;;;;;;;;;;5049765;28;20047;-48
2024/01/07 07:56:20;;;;;;;40.47;29.30;;;;;;;;;;5047409;28;20111;-50
2024/01/07 07:58:46;;;;;;;48.67;30.90;;;;;;;;;;5049473;28;20029;-48
2024/01/07 08:01:12;;;;;;;46.80;30.83;;;;;;;;;;5049500;28;20271;-50
2024/01/07 08:03:39;;;;;;;45.65;32.00;;;;;;;;;;5033489;28;20040;-50
2024/01/07 08:06:05;;;;;;;43.70;29.45;;;;;;;;;;5050932;28;20134;-46
2024/01/07 08:08:32;;;;;;;42.73;29.07;;;;;;;;;;5050185;28;20021;-47
2024/01/07 08:10:58;;;;;;;41.47;28.30;;;;;;;;;;5050312;28;20267;-48
2024/01/07 08:13:24;;;;;;;43.80;29.98;;;;;;;;;;5051199;28;20039;-52
2024/01/07 08:15:50;;;;;;;37.75;26.92;;;;;;;;;;5050662;28;20482;-52
2024/01/07 08:18:17;;;;;;;46.95;30.75;;;;;;;;;;5051256;28;20051;-48
2024/01/07 08:20:43;;;;;;;50.97;31.35;;;;;;;;;;5051480;28;20041;-49
2024/01/07 08:23:10;;;;;;;50.47;32.38;;;;;;;;;;5033597;28;20479;-47
2024/01/07 08:25:36;;;;;;;49.33;33.25;;;;;;;;;;5050938;28;20394;-49
2024/01/07 08:28:02;;;;;;;59.50;36.75;;;;;;;;;;5051190;28;20025;-52
2024/01/07 08:30:28;;;;;;;63.67;40.22;;;;;;;;;;5033526;28;20510;-52
2024/01/07 08:32:55;;;;;;;65.28;40.67;;;;;;;;;;5051301;28;20052;-50
2024/01/07 08:35:22;;;;;;;72.00;44.60;;;;;;;;;;5051138;28;20079;-50
2024/01/07 08:37:48;;;;;;;66.03;39.88;;;;;;;;;;5051185;28;20033;-52
2024/01/07 08:40:14;;;;;;;56.47;37.03;;;;;;;;;;5051115;28;20029;-52
2024/01/07 08:42:41;;;;;;;42.30;29.80;;;;;;;;;;5051386;28;20033;-54
2024/01/07 08:45:07;;;;;;;38.20;25.88;;;;;;;;;;5033107;28;20079;-51
2024/01/07 08:47:35;;;;;;;35.45;25.77;;;;;;;;;;5054436;28;20488;-51
2024/01/07 08:50:03;;;;;;;29.20;20.58;;;;;;;;;;5054987;28;20025;-50
2024/01/07 08:52:29;;;;;;;28.13;20.83;;;;;;;;;;5053623;28;20083;-49
2024/01/07 08:54:55;;;;;;;29.43;20.90;;;;;;;;;;5053870;28;20025;-52
2024/01/07 08:57:21;;;;;;;28.42;19.95;;;;;;;;;;5053904;28;20091;-54
2024/01/07 08:59:48;;;;;;;24.80;18.40;;;;;;;;;;5054140;28;20120;-54
2024/01/07 09:02:14;;;;;;;25.40;18.77;;;;;;;;;;5053080;28;20203;-51
2024/01/07 09:04:40;;;;;;;28.15;20.27;;;;;;;;;;5021267;28;20025;-50
2024/01/07 09:07:07;;;;;;;28.20;19.80;;;;;;;;;;5052218;28;20545;-48
2024/01/07 09:09:33;;;;;;;31.75;22.75;;;;;;;;;;5044941;28;20052;-49
2024/01/07 09:12:00;;;;;;;35.87;24.90;;;;;;;;;;5034571;28;20076;-48
2024/01/07 09:14:26;;;;;;;41.92;26.83;;;;;;;;;;5033287;28;20030;-51
2024/01/07 09:16:53;;;;;;;37.83;27.20;;;;;;;;;;5016405;28;20044;-49
2024/01/07 09:19:19;;;;;;;42.33;31.35;;;;;;;;;;5016912;28;20396;-49
2024/01/07 09:21:45;;;;;;;50.23;34.93;;;;;;;;;;5034492;28;20026;-49
2024/01/07 09:24:12;;;;;;;53.45;34.85;;;;;;;;;;5034226;28;20041;-50
2024/01/07 09:26:38;;;;;;;52.70;36.42;;;;;;;;;;5037090;28;20415;-49
2024/01/07 09:29:04;;;;;;;53.92;35.72;;;;;;;;;;5053371;28;20128;-49
2024/01/07 09:31:30;;;;;;;55.90;35.78;;;;;;;;;;5052837;28;20025;-50
2024/01/07 09:33:57;;;;;;;55.03;36.83;;;;;;;;;;5053068;28;20033;-52
2024/01/07 09:36:23;;;;;;;57.00;40.55;;;;;;;;;;5053163;28;20372;-49
2024/01/07 09:38:49;;;;;;;46.50;32.67;;;;;;;;;;5053001;28;20032;-49
2024/01/07 09:41:15;;;;;;;41.88;29.25;;;;;;;;;;5035219;28;20025;-50
2024/01/07 09:43:42;;;;;;;40.80;28.73;;;;;;;;;;5053194;28;20040;-50
2024/01/07 09:46:08;;;;;;;40.95;29.10;;;;;;;;;;5050702;28;20040;-48
2024/01/07 09:48:34;;;;;;;41.13;27.17;;;;;;;;;;5053317;28;20029;-49
2024/01/07 09:51:01;;;;;;;42.17;28.45;;;;;;;;;;5053918;28;20025;-49
2024/01/07 09:53:31;;;;;;;47.97;32.88;;;;;;;;;;5054296;28;20033;-51
2024/01/07 09:56:02;;;;;;;50.10;29.83;;;;;;;;;;5053701;28;20033;-49
2024/01/07 09:58:28;;;;;;;62.22;36.88;;;;;;;;;;5053254;28;20553;-50
2024/01/07 10:00:55;;;;;;;58.08;35.20;;;;;;;;;;5053720;28;20017;-52
2024/01/07 10:03:21;;;;;;;50.63;30.60;;;;;;;;;;5053625;28;20419;-54
2024/01/07 10:05:47;;;;;;;55.50;35.28;;;;;;;;;;5053563;28;20025;-49
2024/01/07 10:08:13;;;;;;;55.83;32.35;;;;;;;;;;5053548;28;20033;-49
2024/01/07 10:10:40;;;;;;;55.63;32.47;;;;;;;;;;5053615;28;20394;-49
2024/01/07 10:13:08;;;;;;;50.65;29.50;;;;;;;;;;5035676;28;20031;-54
2024/01/07 10:15:35;;;;;;;42.50;25.48;;;;;;;;;;5035547;28;20043;-51
2024/01/07 10:18:08;;;;;;;39.97;24.35;;;;;;;;;;5035501;28;20041;-49
2024/01/07 10:20:34;;;;;;;30.52;21.92;;;;;;;;;;5035252;28;20039;-50
2024/01/07 10:23:04;;;;;;;25.83;18.55;;;;;;;;;;5052829;28;20017;-52
2024/01/07 10:25:33;;;;;;;27.95;18.95;;;;;;;;;;5052446;28;20059;-49
2024/01/07 10:28:01;;;;;;;24.00;17.63;;;;;;;;;;5080069;22;20029;-49
2024/01/07 10:30:27;;;;;;;23.05;18.70;;;;;;;;;;5074507;28;20031;-48
2024/01/07 10:33:00;;;;;;;25.10;18.30;;;;;;;;;;5092718;28;20028;-49
2024/01/07 10:35:36;;;;;;;26.63;17.75;;;;;;;;;;5058210;28;20044;-50
2024/01/07 10:38:03;;;;;;;23.42;17.52;;;;;;;;;;5092950;28;20465;-49
2024/01/07 10:40:31;;;;;;;23.20;18.92;;;;;;;;;;5075151;28;20027;-48
2024/01/07 10:42:57;;;;;;;25.38;17.52;;;;;;;;;;5093144;28;20035;-49
2024/01/07 10:45:23;;;;;;;23.73;17.88;;;;;;;;;;5092836;28;20032;-49
2024/01/07 10:47:54;;;;;;;22.07;17.77;;;;;;;;;;5092984;28;20394;-52
2024/01/07 10:50:20;;;;;;;22.17;15.95;;;;;;;;;;5092940;28;20073;-49
2024/01/07 10:52:52;;;;;;;23.40;16.02;;;;;;;;;;5074659;28;20028;-52
2024/01/07 10:55:20;;;;;;;21.63;15.88;;;;;;;;;;5092702;28;20028;-52
2024/01/07 10:57:47;;;;;;;20.50;16.33;;;;;;;;;;5092783;28;20028;-50
2024/01/07 11:00:20;;;;;;;21.95;16.45;;;;;;;;;;5074661;28;20067;-48
2024/01/07 11:02:52;;;;;;;22.70;14.32;;;;;;;;;;5092695;28;20028;-53
2024/01/07 11:05:37;;;;;;;21.80;15.35;;;;;;;;;;5074342;28;20032;-49
2024/01/07 11:08:22;;;;;;;22.40;15.70;;;;;;;;;;5092333;28;20024;-48
2024/01/07 11:10:54;;;;;;;23.85;16.88;;;;;;;;;;5074245;28;20098;-50
2024/01/07 11:13:37;;;;;;;23.27;17.02;;;;;;;;;;5074446;28;20114;-51
2024/01/07 11:16:04;;;;;;;25.85;17.27;;;;;;;;;;5092505;28;20149;-49
2024/01/07 11:18:33;;;;;;;40.45;18.40;;;;;;;;;;5092399;28;20023;-48
2024/01/07 11:21:03;;;;;;;22.83;17.88;;;;;;;;;;5092352;28;20035;-48
2024/01/07 11:23:38;;;;;;;23.95;16.85;;;;;;;;;;5092069;28;20020;-48
2024/01/07 11:26:05;;;;;;;24.80;18.23;;;;;;;;;;5092174;28;20095;-48
2024/01/07 11:28:47;;;;;;;26.30;17.15;;;;;;;;;;5091989;28;20047;-49
2024/01/07 11:31:15;;;;;;;22.85;16.85;;;;;;;;;;5092231;28;20549;-48
2024/01/07 11:33:49;;;;;;;23.10;16.77;;;;;;;;;;5091986;28;20016;-48
2024/01/07 11:36:16;;;;;;;21.35;15.77;;;;;;;;;;5092079;28;20028;-49
2024/01/07 11:38:42;;;;;;;;;;;;;;;;;;5074419;28;20032;-48
2024/01/07 11:41:10;;;;;;;19.92;15.20;;;;;;;;;;5073429;28;20392;-50
2024/01/07 11:43:36;;;;;;;19.90;15.60;;;;;;;;;;5091650;28;20561;-49
2024/01/07 11:46:02;;;;;;;18.95;14.60;;;;;;;;;;5091823;28;20028;-49
2024/01/07 11:48:28;;;;;;;18.55;15.15;;;;;;;;;;5091703;28;20020;-50
2024/01/07 11:50:54;;;;;;;16.67;14.02;;;;;;;;;;5069099;28;20048;-48
2024/01/07 11:53:21;;;;;;;18.77;15.30;;;;;;;;;;5071689;28;20055;-48
2024/01/07 11:55:47;;;;;;;18.70;15.33;;;;;;;;;;5089829;28;20020;-49
2024/01/07 11:58:13;;;;;;;19.63;15.50;;;;;;;;;;5089656;28;20763;-49
2024/01/07 12:00:40;;;;;;;18.95;15.52;;;;;;;;;;5090034;28;20020;-49
2024/01/07 12:03:06;;;;;;;21.38;16.00;;;;;;;;;;5090460;28;20039;-48
2024/01/07 12:05:32;;;;;;;20.77;15.77;;;;;;;;;;5089566;28;20444;-49
2024/01/07 12:07:58;;;;;;;19.77;15.35;;;;;;;;;;5089505;28;20051;-48
2024/01/07 12:10:24;;;;;;;20.10;15.13;;;;;;;;;;5089782;28;20059;-50
2024/01/07 12:12:51;;;;;;;19.38;15.15;;;;;;;;;;5071471;28;20543;-49
2024/01/07 12:15:17;;;;;;;21.08;16.80;;;;;;;;;;5071196;28;20029;-49
2024/01/07 12:17:48;;;;;;;20.27;15.63;;;;;;;;;;5089578;28;20024;-48
2024/01/07 12:20:15;;;;;;;20.80;16.15;;;;;;;;;;5072410;28;20109;-49
2024/01/07 12:22:43;;;;;;;20.33;15.65;;;;;;;;;;5075605;28;20093;-49
2024/01/07 12:25:09;;;;;;;23.60;18.42;;;;;;;;;;5093944;28;20070;-48
2024/01/07 12:27:35;;;;;;;24.70;19.00;;;;;;;;;;5094182;28;20549;-50
2024/01/07 12:30:02;;;;;;;25.08;18.42;;;;;;;;;;5093767;28;20020;-50
2024/01/07 12:32:31;;;;;;;21.55;16.92;;;;;;;;;;5093350;28;20435;-48
2024/01/07 12:34:59;;;;;;;20.52;17.15;;;;;;;;;;5075065;28;20572;-50
2024/01/07 12:37:27;;;;;;;23.08;18.05;;;;;;;;;;5075578;28;20062;-49
2024/01/07 12:39:54;;;;;;;37.47;19.08;;;;;;;;;;5064147;28;20028;-50
2024/01/07 12:42:21;;;;;;;24.27;17.27;;;;;;;;;;5075411;28;20085;-49
2024/01/07 12:44:51;;;;;;;25.20;17.48;;;;;;;;;;5075741;28;20059;-52
2024/01/07 12:47:18;;;;;;;22.13;15.57;;;;;;;;;;5093119;28;20433;-49
2024/01/07 12:49:45;;;;;;;19.92;14.75;;;;;;;;;;5091283;28;20028;-50
2024/01/07 12:52:11;;;;;;;21.08;16.70;;;;;;;;;;5093733;28;20028;-49
2024/01/07 12:54:39;;;;;;;21.15;15.50;;;;;;;;;;5075270;28;20032;-48
2024/01/07 12:57:05;;;;;;;20.27;15.95;;;;;;;;;;5093809;28;20028;-51
2024/01/07 12:59:31;;;;;;;21.45;15.95;;;;;;;;;;5075494;28;20032;-51
2024/01/07 13:01:57;;;;;;;22.15;16.88;;;;;;;;;;5093184;28;20389;-53
2024/01/07 13:04:24;;;;;;;21.47;16.27;;;;;;;;;;5093039;28;20031;-49
2024/01/07 13:06:50;;;;;;;21.65;16.63;;;;;;;;;;5093415;28;20168;-49
2024/01/07 13:09:17;;;;;;;21.38;16.38;;;;;;;;;;5075260;28;20040;-48
2024/01/07 13:11:43;;;;;;;21.27;16.90;;;;;;;;;;5093225;28;20028;-52
2024/01/07 13:14:09;;;;;;;20.85;15.52;;;;;;;;;;5092875;28;20142;-49
2024/01/07 13:16:35;;;;;;;22.25;17.02;;;;;;;;;;5093043;28;20036;-48
2024/01/07 13:19:04;;;;;;;25.75;17.75;;;;;;;;;;5092822;28;20517;-48
2024/01/07 13:21:30;;;;;;;23.77;17.65;;;;;;;;;;5074911;28;20502;-50
2024/01/07 13:23:59;;;;;;;24.92;18.33;;;;;;;;;;5092714;28;20032;-53
2024/01/07 13:26:26;;;;;;;26.00;17.98;;;;;;;;;;5093114;28;20105;-50
2024/01/07 13:28:53;;;;;;;22.42;17.23;;;;;;;;;;5092727;28;20040;-51
2024/01/07 13:31:19;;;;;;;;;;;;;;;;;;5092712;28;20386;-48
2024/01/07 13:33:46;;;;;;;23.17;16.65;;;;;;;;;;5092140;28;19915;-50
2024/01/07 13:36:13;;;;;;;;;;;;;;;;;;5074920;28;20072;-49
2024/01/07 13:38:41;;;;;;;22.83;16.85;;;;;;;;;;5092798;28;19912;-49
2024/01/07 13:41:08;;;;;;;25.02;18.15;;;;;;;;;;5074485;28;20028;-53
2024/01/07 13:43:37;;;;;;;24.20;17.38;;;;;;;;;;5057577;28;20585;-50
2024/01/07 13:46:03;;;;;;;22.80;16.17;;;;;;;;;;5074142;28;20027;-49
2024/01/07 13:48:29;;;;;;;22.83;16.30;;;;;;;;;;5092232;28;20024;-49
2024/01/07 13:50:57;;;;;;;24.17;17.30;;;;;;;;;;5072381;28;20028;-50
2024/01/07 13:53:24;;;;;;;21.40;16.15;;;;;;;;;;5074074;28;20386;-52
2024/01/07 13:55:50;;;;;;;21.10;16.87;;;;;;;;;;5074440;28;20032;-52
2024/01/07 13:58:17;;;;;;;24.63;17.45;;;;;;;;;;5074135;28;20047;-51
2024/01/07 14:00:43;;;;;;;23.65;17.65;;;;;;;;;;5074586;28;20028;-49
2024/01/07 14:03:09;;;;;;;23.30;16.10;;;;;;;;;;5092436;28;20133;-49
2024/01/07 14:05:35;;;;;;;25.60;17.33;;;;;;;;;;5092048;28;20024;-49
2024/01/07 14:08:02;;;;;;;23.33;17.25;;;;;;;;;;5074227;28;20114;-50
2024/01/07 14:10:29;;;;;;;23.77;15.87;;;;;;;;;;5092141;28;20501;-49
2024/01/07 14:12:55;;;;;;;21.92;16.02;;;;;;;;;;5092371;28;20032;-49
2024/01/07 14:15:21;;;;;;;21.35;15.43;;;;;;;;;;5092109;28;20133;-53